• Join FlightAware (Why Join?)
  • Login
  • US Flag 
06:59AM EDT


 

Airport Tracker/Info


-or-


 

Live Flight TrackerFlight Track Log ✈ AWE3391 ✈ 04-May-2013 ✈ KBDL - KPHL

Flight Track Log - Related Links

Times and Time Zones

All times are in EDT time to prevent confusion due to time zone crossing. See the AWE3391 flight status page for this flight to view local times or setup timezone preferences in your user account.

Time Position Orientation Groundspeed Altitude Reporting Facility
EDT Latitude Longitude Course Direction KTS MPH feet Rate Location/Type
02:24PM 41.9436 -72.6800 236° Southwest 105 121 1,000  Level Boston Center
02:25PM 41.9481 -72.6633 70° East 139 160 2,000 2,280 Climbing Boston Center
02:25PM 41.9397 -72.6300 109° East 205 236 3,200 2,700 Climbing Boston Center
02:26PM 41.8750 -72.6519 194° South 231 266 6,200 3,300 Climbing Boston Center
02:27PM 41.4723 -72.3500 180° South  Level FlightAware Approximate
02:27PM 41.7978 -72.6600 184° South 260 299 9,900  Level Boston Center
02:28PM 41.3350 -72.3391 175° South  Level FlightAware Approximate
02:28PM 41.7272 -72.6097 152° Southeast 286 329 10,500  Level Boston Center
02:29PM 41.2154 -72.4025 236° Southwest  Level FlightAware Approximate
02:29PM 41.6356 -72.5400 150° Southeast 329 379 14,300  Level Boston Center
02:30PM 41.5792 -72.4483 129° Southeast 343 395 17,100 2,580 Climbing Boston Center
02:31PM 41.4917 -72.3542 141° Southeast 359 413 19,500 1,440 Climbing Boston Center
02:32PM 41.3792 -72.3875 193° South 349 402 20,000 240 Climbing Boston Center
02:33PM 41.2708 -72.4236 194° South 372 428 20,000  Level Boston Center
02:34PM 41.1708 -72.5008 210° Southwest 394 453 20,000  Level Boston Center
02:35PM 41.0728 -72.5833 212° Southwest 404 465 20,000  Level Boston Center
02:36PM 40.9767 -72.6656 213° Southwest 418 481 20,000  Level Boston Center
02:37PM 40.8808 -72.7447 212° Southwest 418 481 20,000  Level Boston Center
02:38PM 40.7847 -72.8239 212° Southwest 418 481 20,000  Level Boston Center
02:40PM 40.5678 -73.0033 212° Southwest 423 487 20,000  Level New York Center
02:41PM 40.4725 -73.0819 212° Southwest 418 481 20,000  Level New York Center
02:42PM 40.3750 -73.1603 211° Southwest 418 481 20,000  Level New York Center
02:43PM 40.2797 -73.2414 213° Southwest 418 481 20,000 -300 Level New York Center
02:44PM 40.1881 -73.3303 217° Southwest 418 481 19,500 -720 Descending New York Center
02:45PM 40.0961 -73.4356 221° Southwest 410 472 18,600 -720 Descending New York Center
02:46PM 40.0233 -73.5194 221° Southwest 400 460 18,100 -720 Descending New York Center
02:47PM 39.9397 -73.6164 222° Southwest 400 460 17,200 -900 Descending New York Center
02:48PM 39.8625 -73.7078 222° Southwest 394 453 16,300 -900 Descending New York Center
02:49PM 39.7642 -73.7200 185° South 352 405 15,500 -960 Descending New York Center
02:50PM 39.6694 -73.7536 195° South 352 405 14,500 -780 Descending New York Center
02:51PM 39.6219 -73.8672 242° Southwest 331 381 14,000 -300 Descending Washington Center
02:52PM 39.5797 -73.9842 245° Southwest 346 398 14,000  Level Washington Center
02:53PM 39.5436 -74.0872 246° West 339 390 14,000 -120 Level Washington Center
02:54PM 39.5011 -74.1931 243° Southwest 332 382 13,800 -480 Descending Washington Center
02:55PM 39.4647 -74.2958 245° Southwest 325 374 13,100 -900 Descending Washington Center
02:56PM 39.4261 -74.3958 243° Southwest 325 374 12,100 -1,080 Descending Washington Center
02:57PM 39.3897 -74.4986 245° Southwest 319 367 11,000 -660 Descending Washington Center
02:58PM 39.3531 -74.6011 245° Southwest 319 367 10,800 -420 Descending Washington Center
02:59PM 39.3183 -74.7036 246° West 319 367 10,200 -600 Descending Washington Center
03:00PM 39.2878 -74.7925 246° West 319 367 9,600 -480 Descending Washington Center
03:02PM 39.3667 -74.9000 314° West 278 320 9,000 -240 Descending Philadelphia TRACON
03:03PM 39.4500 -74.9333 343° North 282 325 9,000 -600 Level Philadelphia TRACON
03:04PM 39.5167 -74.9667 339° North 283 326 7,800 -1,020 Descending Philadelphia TRACON
03:05PM 39.5500 -75.0500 297° West 282 325 7,000 -420 Descending Philadelphia TRACON
03:06PM 39.5833 -75.1333 297° West 259 298 7,000 -360 Level Philadelphia TRACON
03:07PM 39.6167 -75.2333 293° West 254 292 6,300 -480 Descending Philadelphia TRACON
03:08PM 39.6333 -75.3167 285° West 204 235 6,000 -180 Descending Philadelphia TRACON
03:09PM 39.6500 -75.3833 288° West 214 246 6,000 -60 Level Philadelphia TRACON
03:10PM 39.6833 -75.4667 297° West 201 231 5,900 -600 Descending Philadelphia TRACON
03:11PM 39.7000 -75.5167 293° West 184 212 4,900 -1,020 Descending Philadelphia TRACON
03:12PM 39.7333 -75.5667 311° West 182 209 4,000 -420 Descending Philadelphia TRACON
03:13PM 39.7833 -75.5500 14° North 174 200 4,000 -120 Level Philadelphia TRACON
03:14PM 39.8167 -75.5167 38° Northeast 164 189 3,800 -540 Descending Philadelphia TRACON
03:15PM 39.8167 -75.4667 90° East 166 191 3,000 -900 Descending Philadelphia TRACON
03:16PM 39.8333 -75.4000 72° East 164 189 2,000 -900 Descending Philadelphia TRACON
03:17PM 39.8500 -75.3500 67° East 156 180 1,200 -780 Descending Philadelphia TRACON
03:18PM 39.8500 -75.3167 90° East 105 121 600 -600 Descending Philadelphia TRACON